sensor_id;sensor_type;location;lat;lon;timestamp;P1;durP1;ratioP1;P2;durP2;ratioP2
66970;SDS011;53901;51.466;-2.588;2023-06-26T00:01:40;9.63;;;1.98;;
66970;SDS011;53901;51.466;-2.588;2023-06-26T00:04:06;10.57;;;1.83;;
66970;SDS011;53901;51.466;-2.588;2023-06-26T00:06:32;12.10;;;1.70;;
66970;SDS011;53901;51.466;-2.588;2023-06-26T00:08:57;5.13;;;1.60;;
66970;SDS011;53901;51.466;-2.588;2023-06-26T00:11:23;10.52;;;1.70;;
66970;SDS011;53901;51.466;-2.588;2023-06-26T00:13:49;6.85;;;1.85;;
66970;SDS011;53901;51.466;-2.588;2023-06-26T00:16:15;7.25;;;1.77;;
66970;SDS011;53901;51.466;-2.588;2023-06-26T00:18:40;6.93;;;1.77;;
66970;SDS011;53901;51.466;-2.588;2023-06-26T00:21:05;7.90;;;1.80;;
66970;SDS011;53901;51.466;-2.588;2023-06-26T00:23:31;5.30;;;1.70;;
66970;SDS011;53901;51.466;-2.588;2023-06-26T00:25:58;9.02;;;1.60;;
66970;SDS011;53901;51.466;-2.588;2023-06-26T00:28:23;8.88;;;1.58;;
66970;SDS011;53901;51.466;-2.588;2023-06-26T00:30:48;5.47;;;1.80;;
66970;SDS011;53901;51.466;-2.588;2023-06-26T00:33:14;7.30;;;1.85;;
66970;SDS011;53901;51.466;-2.588;2023-06-26T00:35:40;8.38;;;1.38;;
66970;SDS011;53901;51.466;-2.588;2023-06-26T00:38:05;12.05;;;1.60;;
66970;SDS011;53901;51.466;-2.588;2023-06-26T00:40:31;12.23;;;2.17;;
66970;SDS011;53901;51.466;-2.588;2023-06-26T00:42:56;10.30;;;2.10;;
66970;SDS011;53901;51.466;-2.588;2023-06-26T00:45:21;7.70;;;1.92;;
66970;SDS011;53901;51.466;-2.588;2023-06-26T00:47:47;10.68;;;2.08;;
66970;SDS011;53901;51.466;-2.588;2023-06-26T00:50:13;9.05;;;2.20;;
66970;SDS011;53901;51.466;-2.588;2023-06-26T00:52:40;14.02;;;2.00;;
66970;SDS011;53901;51.466;-2.588;2023-06-26T00:55:06;9.13;;;1.55;;
66970;SDS011;53901;51.466;-2.588;2023-06-26T00:57:32;12.18;;;1.90;;
66970;SDS011;53901;51.466;-2.588;2023-06-26T00:59:58;12.85;;;1.95;;
66970;SDS011;53901;51.466;-2.588;2023-06-26T01:02:24;5.97;;;1.60;;
66970;SDS011;53901;51.466;-2.588;2023-06-26T01:04:50;9.52;;;2.05;;
66970;SDS011;53901;51.466;-2.588;2023-06-26T01:07:16;10.23;;;2.17;;
66970;SDS011;53901;51.466;-2.588;2023-06-26T01:09:43;10.80;;;2.28;;
66970;SDS011;53901;51.466;-2.588;2023-06-26T01:12:09;12.77;;;1.92;;
66970;SDS011;53901;51.466;-2.588;2023-06-26T01:14:35;12.07;;;1.90;;
66970;SDS011;53901;51.466;-2.588;2023-06-26T01:17:01;13.35;;;2.17;;
66970;SDS011;53901;51.466;-2.588;2023-06-26T01:19:27;9.80;;;1.80;;
66970;SDS011;53901;51.466;-2.588;2023-06-26T01:22:16;11.98;;;2.05;;
66970;SDS011;53901;51.466;-2.588;2023-06-26T01:25:15;6.68;;;2.05;;
66970;SDS011;53901;51.466;-2.588;2023-06-26T01:27:49;9.27;;;2.22;;
66970;SDS011;53901;51.466;-2.588;2023-06-26T01:30:16;9.68;;;1.98;;
66970;SDS011;53901;51.466;-2.588;2023-06-26T01:32:42;12.00;;;1.67;;
66970;SDS011;53901;51.466;-2.588;2023-06-26T01:35:08;13.13;;;1.80;;
66970;SDS011;53901;51.466;-2.588;2023-06-26T01:37:34;7.50;;;1.70;;
66970;SDS011;53901;51.466;-2.588;2023-06-26T01:40:00;15.55;;;2.33;;
66970;SDS011;53901;51.466;-2.588;2023-06-26T01:42:25;11.15;;;1.70;;
66970;SDS011;53901;51.466;-2.588;2023-06-26T01:44:51;11.55;;;2.03;;
66970;SDS011;53901;51.466;-2.588;2023-06-26T01:47:20;11.35;;;2.38;;
66970;SDS011;53901;51.466;-2.588;2023-06-26T01:49:59;8.00;;;1.45;;
66970;SDS011;53901;51.466;-2.588;2023-06-26T01:52:53;13.70;;;2.35;;
66970;SDS011;53901;51.466;-2.588;2023-06-26T01:58:09;8.13;;;2.00;;
66970;SDS011;53901;51.466;-2.588;2023-06-26T02:00:35;15.50;;;2.00;;
66970;SDS011;53901;51.466;-2.588;2023-06-26T02:03:02;10.30;;;1.92;;
66970;SDS011;53901;51.466;-2.588;2023-06-26T02:05:28;11.15;;;2.30;;
66970;SDS011;53901;51.466;-2.588;2023-06-26T02:07:55;14.93;;;2.13;;
66970;SDS011;53901;51.466;-2.588;2023-06-26T02:10:21;12.52;;;1.70;;
66970;SDS011;53901;51.466;-2.588;2023-06-26T02:12:46;10.45;;;1.85;;
66970;SDS011;53901;51.466;-2.588;2023-06-26T02:15:12;8.85;;;1.80;;
66970;SDS011;53901;51.466;-2.588;2023-06-26T02:17:37;10.88;;;2.40;;
66970;SDS011;53901;51.466;-2.588;2023-06-26T02:20:03;12.27;;;2.50;;
66970;SDS011;53901;51.466;-2.588;2023-06-26T02:22:28;12.18;;;1.85;;
66970;SDS011;53901;51.466;-2.588;2023-06-26T02:24:54;9.65;;;1.70;;
66970;SDS011;53901;51.466;-2.588;2023-06-26T02:27:19;9.20;;;2.15;;
66970;SDS011;53901;51.466;-2.588;2023-06-26T02:29:44;11.93;;;1.73;;
66970;SDS011;53901;51.466;-2.588;2023-06-26T02:32:10;12.30;;;2.30;;
66970;SDS011;53901;51.466;-2.588;2023-06-26T02:34:35;16.02;;;2.63;;
66970;SDS011;53901;51.466;-2.588;2023-06-26T02:37:01;12.43;;;1.90;;
66970;SDS011;53901;51.466;-2.588;2023-06-26T02:39:26;14.48;;;2.30;;
66970;SDS011;53901;51.466;-2.588;2023-06-26T02:41:52;15.30;;;2.88;;
66970;SDS011;53901;51.466;-2.588;2023-06-26T02:44:18;13.52;;;2.25;;
66970;SDS011;53901;51.466;-2.588;2023-06-26T02:46:43;16.00;;;2.13;;
66970;SDS011;53901;51.466;-2.588;2023-06-26T02:49:09;8.07;;;1.90;;
66970;SDS011;53901;51.466;-2.588;2023-06-26T02:51:34;23.15;;;2.38;;
66970;SDS011;53901;51.466;-2.588;2023-06-26T02:54:00;14.05;;;2.40;;
66970;SDS011;53901;51.466;-2.588;2023-06-26T02:56:25;14.88;;;2.40;;
66970;SDS011;53901;51.466;-2.588;2023-06-26T02:58:54;11.95;;;2.40;;
66970;SDS011;53901;51.466;-2.588;2023-06-26T03:01:20;9.82;;;2.17;;
66970;SDS011;53901;51.466;-2.588;2023-06-26T03:03:46;11.55;;;2.00;;
66970;SDS011;53901;51.466;-2.588;2023-06-26T03:06:12;9.57;;;1.90;;
66970;SDS011;53901;51.466;-2.588;2023-06-26T03:08:37;13.55;;;2.17;;
66970;SDS011;53901;51.466;-2.588;2023-06-26T03:11:06;14.32;;;2.10;;
66970;SDS011;53901;51.466;-2.588;2023-06-26T03:13:35;9.85;;;2.22;;
66970;SDS011;53901;51.466;-2.588;2023-06-26T03:16:01;14.23;;;2.65;;
66970;SDS011;53901;51.466;-2.588;2023-06-26T03:18:27;15.38;;;2.58;;
66970;SDS011;53901;51.466;-2.588;2023-06-26T03:20:53;7.50;;;1.85;;
66970;SDS011;53901;51.466;-2.588;2023-06-26T03:23:20;13.90;;;2.25;;
66970;SDS011;53901;51.466;-2.588;2023-06-26T03:25:45;11.13;;;2.33;;
66970;SDS011;53901;51.466;-2.588;2023-06-26T03:28:11;12.30;;;2.30;;
66970;SDS011;53901;51.466;-2.588;2023-06-26T03:30:36;19.25;;;2.70;;
66970;SDS011;53901;51.466;-2.588;2023-06-26T03:33:02;9.73;;;1.85;;
66970;SDS011;53901;51.466;-2.588;2023-06-26T03:35:27;9.88;;;1.98;;
66970;SDS011;53901;51.466;-2.588;2023-06-26T03:37:53;10.82;;;2.00;;
66970;SDS011;53901;51.466;-2.588;2023-06-26T03:40:18;8.18;;;1.58;;
66970;SDS011;53901;51.466;-2.588;2023-06-26T03:42:43;10.73;;;1.83;;
66970;SDS011;53901;51.466;-2.588;2023-06-26T03:45:09;8.23;;;1.58;;
66970;SDS011;53901;51.466;-2.588;2023-06-26T03:47:34;9.38;;;1.85;;
66970;SDS011;53901;51.466;-2.588;2023-06-26T03:49:59;7.40;;;1.80;;
66970;SDS011;53901;51.466;-2.588;2023-06-26T03:52:25;7.65;;;1.70;;
66970;SDS011;53901;51.466;-2.588;2023-06-26T03:54:50;8.13;;;1.55;;
66970;SDS011;53901;51.466;-2.588;2023-06-26T03:57:15;5.90;;;1.45;;
66970;SDS011;53901;51.466;-2.588;2023-06-26T03:59:41;10.13;;;1.60;;
66970;SDS011;53901;51.466;-2.588;2023-06-26T04:02:06;11.35;;;2.10;;
66970;SDS011;53901;51.466;-2.588;2023-06-26T04:04:32;3.95;;;1.42;;
66970;SDS011;53901;51.466;-2.588;2023-06-26T04:06:57;16.60;;;2.17;;
66970;SDS011;53901;51.466;-2.588;2023-06-26T04:09:24;6.90;;;1.40;;
66970;SDS011;53901;51.466;-2.588;2023-06-26T04:11:50;7.00;;;1.63;;
66970;SDS011;53901;51.466;-2.588;2023-06-26T04:14:15;11.25;;;2.08;;
66970;SDS011;53901;51.466;-2.588;2023-06-26T04:16:41;9.23;;;1.50;;
66970;SDS011;53901;51.466;-2.588;2023-06-26T04:19:06;13.27;;;1.83;;
66970;SDS011;53901;51.466;-2.588;2023-06-26T04:21:32;7.57;;;1.75;;
66970;SDS011;53901;51.466;-2.588;2023-06-26T04:23:58;7.97;;;2.22;;
66970;SDS011;53901;51.466;-2.588;2023-06-26T04:26:23;7.57;;;1.48;;
66970;SDS011;53901;51.466;-2.588;2023-06-26T04:28:49;10.63;;;2.00;;
66970;SDS011;53901;51.466;-2.588;2023-06-26T04:31:14;10.27;;;1.75;;
66970;SDS011;53901;51.466;-2.588;2023-06-26T04:33:39;9.27;;;1.67;;
66970;SDS011;53901;51.466;-2.588;2023-06-26T04:36:05;4.97;;;1.60;;
66970;SDS011;53901;51.466;-2.588;2023-06-26T04:38:31;6.80;;;1.50;;
66970;SDS011;53901;51.466;-2.588;2023-06-26T04:41:00;12.07;;;2.13;;
66970;SDS011;53901;51.466;-2.588;2023-06-26T04:43:26;10.25;;;1.70;;
66970;SDS011;53901;51.466;-2.588;2023-06-26T04:45:51;6.97;;;1.70;;
66970;SDS011;53901;51.466;-2.588;2023-06-26T04:48:17;5.50;;;1.50;;
66970;SDS011;53901;51.466;-2.588;2023-06-26T04:50:42;9.15;;;1.63;;
66970;SDS011;53901;51.466;-2.588;2023-06-26T04:53:07;7.30;;;1.98;;
66970;SDS011;53901;51.466;-2.588;2023-06-26T04:55:33;6.57;;;1.60;;
66970;SDS011;53901;51.466;-2.588;2023-06-26T04:57:58;8.38;;;1.65;;
66970;SDS011;53901;51.466;-2.588;2023-06-26T05:00:24;4.88;;;1.40;;
66970;SDS011;53901;51.466;-2.588;2023-06-26T05:02:49;11.18;;;2.00;;
66970;SDS011;53901;51.466;-2.588;2023-06-26T05:05:26;8.38;;;1.90;;
66970;SDS011;53901;51.466;-2.588;2023-06-26T05:07:53;7.28;;;1.83;;
66970;SDS011;53901;51.466;-2.588;2023-06-26T05:10:19;10.45;;;1.85;;
66970;SDS011;53901;51.466;-2.588;2023-06-26T05:12:45;7.47;;;1.73;;
66970;SDS011;53901;51.466;-2.588;2023-06-26T05:15:10;9.27;;;2.17;;
66970;SDS011;53901;51.466;-2.588;2023-06-26T05:17:35;7.68;;;1.58;;
66970;SDS011;53901;51.466;-2.588;2023-06-26T05:20:01;6.82;;;1.90;;
66970;SDS011;53901;51.466;-2.588;2023-06-26T05:22:26;8.43;;;1.50;;
66970;SDS011;53901;51.466;-2.588;2023-06-26T05:24:52;8.38;;;1.60;;
66970;SDS011;53901;51.466;-2.588;2023-06-26T05:27:20;6.50;;;1.48;;
66970;SDS011;53901;51.466;-2.588;2023-06-26T05:29:47;7.60;;;1.83;;
66970;SDS011;53901;51.466;-2.588;2023-06-26T05:32:13;7.40;;;1.75;;
66970;SDS011;53901;51.466;-2.588;2023-06-26T05:34:42;12.02;;;2.03;;
66970;SDS011;53901;51.466;-2.588;2023-06-26T05:37:10;7.68;;;1.60;;
66970;SDS011;53901;51.466;-2.588;2023-06-26T05:39:40;8.68;;;1.52;;
66970;SDS011;53901;51.466;-2.588;2023-06-26T05:42:06;18.08;;;1.98;;
66970;SDS011;53901;51.466;-2.588;2023-06-26T05:44:31;6.72;;;1.70;;
66970;SDS011;53901;51.466;-2.588;2023-06-26T05:46:57;6.63;;;1.48;;
66970;SDS011;53901;51.466;-2.588;2023-06-26T05:49:22;7.28;;;1.50;;
66970;SDS011;53901;51.466;-2.588;2023-06-26T05:51:48;7.15;;;1.77;;
66970;SDS011;53901;51.466;-2.588;2023-06-26T05:54:13;9.00;;;1.60;;
66970;SDS011;53901;51.466;-2.588;2023-06-26T05:56:39;10.38;;;1.70;;
66970;SDS011;53901;51.466;-2.588;2023-06-26T05:59:06;7.45;;;1.98;;
66970;SDS011;53901;51.466;-2.588;2023-06-26T06:01:32;7.18;;;1.70;;
66970;SDS011;53901;51.466;-2.588;2023-06-26T06:03:58;7.57;;;1.63;;
66970;SDS011;53901;51.466;-2.588;2023-06-26T06:06:23;7.03;;;1.40;;
66970;SDS011;53901;51.466;-2.588;2023-06-26T06:08:49;6.13;;;1.50;;
66970;SDS011;53901;51.466;-2.588;2023-06-26T06:11:14;6.75;;;1.50;;
66970;SDS011;53901;51.466;-2.588;2023-06-26T06:13:40;5.07;;;1.55;;
66970;SDS011;53901;51.466;-2.588;2023-06-26T06:16:05;7.53;;;1.85;;
66970;SDS011;53901;51.466;-2.588;2023-06-26T06:18:31;7.68;;;1.40;;
66970;SDS011;53901;51.466;-2.588;2023-06-26T06:20:56;5.07;;;1.35;;
66970;SDS011;53901;51.466;-2.588;2023-06-26T06:23:21;9.30;;;1.45;;
66970;SDS011;53901;51.466;-2.588;2023-06-26T06:25:48;9.00;;;1.30;;
66970;SDS011;53901;51.466;-2.588;2023-06-26T06:28:13;6.00;;;1.40;;
66970;SDS011;53901;51.466;-2.588;2023-06-26T06:30:41;7.45;;;1.30;;
66970;SDS011;53901;51.466;-2.588;2023-06-26T06:33:06;6.32;;;1.40;;
66970;SDS011;53901;51.466;-2.588;2023-06-26T06:35:31;5.40;;;1.65;;
66970;SDS011;53901;51.466;-2.588;2023-06-26T06:37:57;6.60;;;1.52;;
66970;SDS011;53901;51.466;-2.588;2023-06-26T06:40:22;9.90;;;1.65;;
66970;SDS011;53901;51.466;-2.588;2023-06-26T06:42:48;10.73;;;1.80;;
66970;SDS011;53901;51.466;-2.588;2023-06-26T06:45:13;11.10;;;1.80;;
66970;SDS011;53901;51.466;-2.588;2023-06-26T06:47:38;6.72;;;1.50;;
66970;SDS011;53901;51.466;-2.588;2023-06-26T06:50:04;7.25;;;1.30;;
66970;SDS011;53901;51.466;-2.588;2023-06-26T06:52:36;5.38;;;1.27;;
66970;SDS011;53901;51.466;-2.588;2023-06-26T06:55:03;9.82;;;1.67;;
66970;SDS011;53901;51.466;-2.588;2023-06-26T06:57:36;4.65;;;1.17;;
66970;SDS011;53901;51.466;-2.588;2023-06-26T07:00:10;5.07;;;1.40;;
66970;SDS011;53901;51.466;-2.588;2023-06-26T07:02:37;4.50;;;1.33;;
66970;SDS011;53901;51.466;-2.588;2023-06-26T07:05:03;8.15;;;1.50;;
66970;SDS011;53901;51.466;-2.588;2023-06-26T07:07:29;3.10;;;1.30;;
66970;SDS011;53901;51.466;-2.588;2023-06-26T07:09:57;3.90;;;1.40;;
66970;SDS011;53901;51.466;-2.588;2023-06-26T07:12:27;3.42;;;1.27;;
66970;SDS011;53901;51.466;-2.588;2023-06-26T07:14:53;5.80;;;1.50;;
66970;SDS011;53901;51.466;-2.588;2023-06-26T07:17:19;8.18;;;1.40;;
66970;SDS011;53901;51.466;-2.588;2023-06-26T07:19:46;7.85;;;1.67;;
66970;SDS011;53901;51.466;-2.588;2023-06-26T07:22:11;6.32;;;1.52;;
66970;SDS011;53901;51.466;-2.588;2023-06-26T07:24:37;6.55;;;1.60;;
66970;SDS011;53901;51.466;-2.588;2023-06-26T07:27:02;5.35;;;1.50;;
66970;SDS011;53901;51.466;-2.588;2023-06-26T07:29:28;10.38;;;1.60;;
66970;SDS011;53901;51.466;-2.588;2023-06-26T07:31:53;12.30;;;1.90;;
66970;SDS011;53901;51.466;-2.588;2023-06-26T07:34:19;7.57;;;1.65;;
66970;SDS011;53901;51.466;-2.588;2023-06-26T07:36:44;7.20;;;1.67;;
66970;SDS011;53901;51.466;-2.588;2023-06-26T07:39:10;6.65;;;1.50;;
66970;SDS011;53901;51.466;-2.588;2023-06-26T07:41:35;9.20;;;1.50;;
66970;SDS011;53901;51.466;-2.588;2023-06-26T07:44:00;4.82;;;1.30;;
66970;SDS011;53901;51.466;-2.588;2023-06-26T07:46:26;8.02;;;2.05;;
66970;SDS011;53901;51.466;-2.588;2023-06-26T07:48:51;6.75;;;1.70;;
66970;SDS011;53901;51.466;-2.588;2023-06-26T07:51:17;4.80;;;1.65;;
66970;SDS011;53901;51.466;-2.588;2023-06-26T07:53:42;6.55;;;1.73;;
66970;SDS011;53901;51.466;-2.588;2023-06-26T07:56:08;7.60;;;1.98;;
66970;SDS011;53901;51.466;-2.588;2023-06-26T07:58:34;7.07;;;1.58;;
66970;SDS011;53901;51.466;-2.588;2023-06-26T08:00:59;10.70;;;1.92;;
66970;SDS011;53901;51.466;-2.588;2023-06-26T08:03:25;11.95;;;1.85;;
66970;SDS011;53901;51.466;-2.588;2023-06-26T08:05:50;6.68;;;1.30;;
66970;SDS011;53901;51.466;-2.588;2023-06-26T08:08:16;4.60;;;1.50;;
66970;SDS011;53901;51.466;-2.588;2023-06-26T08:10:41;9.68;;;1.50;;
66970;SDS011;53901;51.466;-2.588;2023-06-26T08:13:07;10.25;;;1.75;;
66970;SDS011;53901;51.466;-2.588;2023-06-26T08:15:32;9.05;;;1.77;;
66970;SDS011;53901;51.466;-2.588;2023-06-26T08:17:57;5.57;;;1.50;;
66970;SDS011;53901;51.466;-2.588;2023-06-26T08:20:23;8.98;;;1.92;;
66970;SDS011;53901;51.466;-2.588;2023-06-26T08:22:48;7.22;;;1.60;;
66970;SDS011;53901;51.466;-2.588;2023-06-26T08:25:16;7.25;;;1.60;;
66970;SDS011;53901;51.466;-2.588;2023-06-26T08:27:42;8.38;;;1.98;;
66970;SDS011;53901;51.466;-2.588;2023-06-26T08:30:07;11.32;;;2.10;;
66970;SDS011;53901;51.466;-2.588;2023-06-26T08:32:33;10.98;;;1.98;;
66970;SDS011;53901;51.466;-2.588;2023-06-26T08:34:59;10.45;;;1.90;;
66970;SDS011;53901;51.466;-2.588;2023-06-26T08:37:24;11.20;;;2.45;;
66970;SDS011;53901;51.466;-2.588;2023-06-26T08:39:49;6.95;;;1.50;;
66970;SDS011;53901;51.466;-2.588;2023-06-26T08:42:15;16.52;;;2.10;;
66970;SDS011;53901;51.466;-2.588;2023-06-26T08:44:40;8.05;;;1.50;;
66970;SDS011;53901;51.466;-2.588;2023-06-26T08:47:05;9.85;;;1.80;;
66970;SDS011;53901;51.466;-2.588;2023-06-26T08:52:04;7.43;;;1.75;;
66970;SDS011;53901;51.466;-2.588;2023-06-26T08:54:36;9.73;;;2.10;;
66970;SDS011;53901;51.466;-2.588;2023-06-26T08:57:08;11.13;;;2.00;;
66970;SDS011;53901;51.466;-2.588;2023-06-26T08:59:33;11.18;;;2.17;;
66970;SDS011;53901;51.466;-2.588;2023-06-26T09:01:58;6.25;;;1.95;;
66970;SDS011;53901;51.466;-2.588;2023-06-26T09:04:24;7.38;;;1.95;;
66970;SDS011;53901;51.466;-2.588;2023-06-26T09:06:50;8.70;;;2.17;;
66970;SDS011;53901;51.466;-2.588;2023-06-26T09:09:15;11.88;;;1.70;;
66970;SDS011;53901;51.466;-2.588;2023-06-26T09:11:41;6.72;;;1.92;;
66970;SDS011;53901;51.466;-2.588;2023-06-26T09:14:06;7.03;;;1.67;;
66970;SDS011;53901;51.466;-2.588;2023-06-26T09:16:38;12.90;;;1.77;;
66970;SDS011;53901;51.466;-2.588;2023-06-26T09:19:08;8.77;;;1.85;;
66970;SDS011;53901;51.466;-2.588;2023-06-26T09:21:34;6.60;;;1.65;;
66970;SDS011;53901;51.466;-2.588;2023-06-26T09:24:00;6.18;;;1.70;;
66970;SDS011;53901;51.466;-2.588;2023-06-26T09:26:25;9.48;;;1.88;;
66970;SDS011;53901;51.466;-2.588;2023-06-26T09:28:51;4.82;;;1.42;;
66970;SDS011;53901;51.466;-2.588;2023-06-26T09:31:16;8.20;;;1.50;;
66970;SDS011;53901;51.466;-2.588;2023-06-26T09:33:42;5.93;;;1.30;;
66970;SDS011;53901;51.466;-2.588;2023-06-26T09:36:08;8.90;;;1.50;;
66970;SDS011;53901;51.466;-2.588;2023-06-26T09:38:37;6.82;;;1.73;;
66970;SDS011;53901;51.466;-2.588;2023-06-26T09:41:03;5.10;;;1.30;;
66970;SDS011;53901;51.466;-2.588;2023-06-26T09:43:28;10.40;;;2.28;;
66970;SDS011;53901;51.466;-2.588;2023-06-26T09:45:53;5.03;;;1.30;;
66970;SDS011;53901;51.466;-2.588;2023-06-26T09:48:20;4.88;;;1.10;;
66970;SDS011;53901;51.466;-2.588;2023-06-26T09:50:45;6.90;;;1.38;;
66970;SDS011;53901;51.466;-2.588;2023-06-26T09:53:11;4.35;;;1.25;;
66970;SDS011;53901;51.466;-2.588;2023-06-26T09:55:38;4.00;;;1.20;;
66970;SDS011;53901;51.466;-2.588;2023-06-26T09:58:05;5.93;;;1.20;;
66970;SDS011;53901;51.466;-2.588;2023-06-26T10:00:31;4.70;;;1.10;;
66970;SDS011;53901;51.466;-2.588;2023-06-26T10:02:58;6.07;;;1.38;;
66970;SDS011;53901;51.466;-2.588;2023-06-26T10:05:24;10.15;;;1.48;;
66970;SDS011;53901;51.466;-2.588;2023-06-26T10:07:49;6.57;;;1.75;;
66970;SDS011;53901;51.466;-2.588;2023-06-26T10:10:15;4.70;;;1.10;;
66970;SDS011;53901;51.466;-2.588;2023-06-26T10:12:41;3.67;;;1.00;;
66970;SDS011;53901;51.466;-2.588;2023-06-26T10:15:08;6.97;;;1.58;;
66970;SDS011;53901;51.466;-2.588;2023-06-26T10:17:37;6.07;;;1.05;;
66970;SDS011;53901;51.466;-2.588;2023-06-26T10:20:04;4.90;;;1.20;;
66970;SDS011;53901;51.466;-2.588;2023-06-26T10:22:33;5.30;;;1.13;;
66970;SDS011;53901;51.466;-2.588;2023-06-26T10:25:02;5.80;;;1.00;;
66970;SDS011;53901;51.466;-2.588;2023-06-26T10:27:33;7.20;;;1.20;;
66970;SDS011;53901;51.466;-2.588;2023-06-26T10:30:02;7.30;;;1.08;;
66970;SDS011;53901;51.466;-2.588;2023-06-26T10:32:29;3.47;;;1.05;;
66970;SDS011;53901;51.466;-2.588;2023-06-26T10:34:55;6.68;;;1.05;;
66970;SDS011;53901;51.466;-2.588;2023-06-26T10:37:20;6.32;;;1.08;;
66970;SDS011;53901;51.466;-2.588;2023-06-26T10:39:50;8.13;;;1.35;;
66970;SDS011;53901;51.466;-2.588;2023-06-26T10:42:17;8.23;;;1.30;;
66970;SDS011;53901;51.466;-2.588;2023-06-26T10:44:44;7.47;;;1.13;;
66970;SDS011;53901;51.466;-2.588;2023-06-26T10:47:11;3.95;;;0.88;;
66970;SDS011;53901;51.466;-2.588;2023-06-26T10:49:37;7.72;;;1.20;;
66970;SDS011;53901;51.466;-2.588;2023-06-26T10:52:07;3.45;;;1.10;;
66970;SDS011;53901;51.466;-2.588;2023-06-26T10:54:33;7.82;;;1.20;;
66970;SDS011;53901;51.466;-2.588;2023-06-26T10:56:58;4.97;;;0.98;;
66970;SDS011;53901;51.466;-2.588;2023-06-26T10:59:25;3.83;;;1.10;;
66970;SDS011;53901;51.466;-2.588;2023-06-26T11:04:35;5.03;;;1.25;;
66970;SDS011;53901;51.466;-2.588;2023-06-26T11:12:48;6.60;;;1.15;;
66970;SDS011;53901;51.466;-2.588;2023-06-26T11:15:15;6.45;;;1.48;;
66970;SDS011;53901;51.466;-2.588;2023-06-26T11:17:42;4.22;;;1.00;;
66970;SDS011;53901;51.466;-2.588;2023-06-26T11:20:09;2.65;;;0.70;;
66970;SDS011;53901;51.466;-2.588;2023-06-26T11:22:38;5.65;;;1.00;;
66970;SDS011;53901;51.466;-2.588;2023-06-26T11:25:04;4.68;;;1.33;;
66970;SDS011;53901;51.466;-2.588;2023-06-26T11:27:41;3.90;;;0.90;;
66970;SDS011;53901;51.466;-2.588;2023-06-26T11:30:10;3.90;;;1.00;;
66970;SDS011;53901;51.466;-2.588;2023-06-26T11:32:37;7.75;;;1.13;;
66970;SDS011;53901;51.466;-2.588;2023-06-26T11:35:03;4.45;;;1.10;;
66970;SDS011;53901;51.466;-2.588;2023-06-26T11:37:29;6.60;;;1.23;;
66970;SDS011;53901;51.466;-2.588;2023-06-26T11:39:56;5.07;;;1.00;;
66970;SDS011;53901;51.466;-2.588;2023-06-26T11:42:21;5.93;;;1.42;;
66970;SDS011;53901;51.466;-2.588;2023-06-26T11:44:47;8.88;;;1.08;;
66970;SDS011;53901;51.466;-2.588;2023-06-26T11:49:42;7.43;;;1.20;;
66970;SDS011;53901;51.466;-2.588;2023-06-26T11:52:08;5.90;;;1.20;;
66970;SDS011;53901;51.466;-2.588;2023-06-26T11:54:33;5.65;;;1.20;;
66970;SDS011;53901;51.466;-2.588;2023-06-26T11:56:59;7.40;;;1.30;;
66970;SDS011;53901;51.466;-2.588;2023-06-26T11:59:36;7.03;;;1.05;;
66970;SDS011;53901;51.466;-2.588;2023-06-26T12:02:08;7.10;;;1.20;;
66970;SDS011;53901;51.466;-2.588;2023-06-26T12:04:38;3.40;;;1.00;;
66970;SDS011;53901;51.466;-2.588;2023-06-26T12:07:06;7.07;;;1.80;;
66970;SDS011;53901;51.466;-2.588;2023-06-26T12:09:34;4.90;;;1.23;;
66970;SDS011;53901;51.466;-2.588;2023-06-26T12:12:03;8.00;;;1.30;;
66970;SDS011;53901;51.466;-2.588;2023-06-26T12:14:29;3.92;;;0.90;;
66970;SDS011;53901;51.466;-2.588;2023-06-26T12:16:54;6.65;;;1.15;;
66970;SDS011;53901;51.466;-2.588;2023-06-26T12:19:26;8.93;;;1.38;;
66970;SDS011;53901;51.466;-2.588;2023-06-26T12:21:52;4.88;;;1.02;;
66970;SDS011;53901;51.466;-2.588;2023-06-26T12:24:18;5.55;;;1.00;;
66970;SDS011;53901;51.466;-2.588;2023-06-26T12:26:50;8.05;;;1.55;;
66970;SDS011;53901;51.466;-2.588;2023-06-26T12:29:22;4.30;;;1.20;;
66970;SDS011;53901;51.466;-2.588;2023-06-26T12:31:54;6.65;;;1.38;;
66970;SDS011;53901;51.466;-2.588;2023-06-26T12:34:41;6.10;;;1.60;;
66970;SDS011;53901;51.466;-2.588;2023-06-26T12:37:07;8.82;;;1.33;;
66970;SDS011;53901;51.466;-2.588;2023-06-26T12:42:19;4.90;;;1.15;;
66970;SDS011;53901;51.466;-2.588;2023-06-26T12:44:51;7.30;;;1.35;;
66970;SDS011;53901;51.466;-2.588;2023-06-26T12:47:19;5.35;;;1.13;;
66970;SDS011;53901;51.466;-2.588;2023-06-26T12:49:51;6.57;;;1.27;;
66970;SDS011;53901;51.466;-2.588;2023-06-26T12:52:17;4.95;;;1.20;;
66970;SDS011;53901;51.466;-2.588;2023-06-26T12:54:46;5.57;;;1.10;;
66970;SDS011;53901;51.466;-2.588;2023-06-26T12:57:12;4.50;;;1.23;;
66970;SDS011;53901;51.466;-2.588;2023-06-26T12:59:41;5.40;;;1.20;;
66970;SDS011;53901;51.466;-2.588;2023-06-26T13:02:07;5.13;;;1.42;;
66970;SDS011;53901;51.466;-2.588;2023-06-26T13:04:33;5.15;;;1.17;;
66970;SDS011;53901;51.466;-2.588;2023-06-26T13:06:59;5.68;;;1.10;;
66970;SDS011;53901;51.466;-2.588;2023-06-26T13:09:24;3.90;;;1.08;;
66970;SDS011;53901;51.466;-2.588;2023-06-26T13:11:53;2.78;;;1.25;;
66970;SDS011;53901;51.466;-2.588;2023-06-26T13:14:19;4.47;;;1.13;;
66970;SDS011;53901;51.466;-2.588;2023-06-26T13:16:45;4.40;;;0.98;;
66970;SDS011;53901;51.466;-2.588;2023-06-26T13:19:11;5.30;;;1.00;;
66970;SDS011;53901;51.466;-2.588;2023-06-26T13:21:36;7.88;;;1.20;;
66970;SDS011;53901;51.466;-2.588;2023-06-26T13:24:02;3.67;;;1.08;;
66970;SDS011;53901;51.466;-2.588;2023-06-26T13:26:30;6.43;;;1.23;;
66970;SDS011;53901;51.466;-2.588;2023-06-26T13:28:56;3.58;;;0.93;;
66970;SDS011;53901;51.466;-2.588;2023-06-26T13:31:22;3.45;;;0.95;;
66970;SDS011;53901;51.466;-2.588;2023-06-26T13:33:47;3.33;;;1.00;;
66970;SDS011;53901;51.466;-2.588;2023-06-26T13:36:19;8.15;;;1.08;;
66970;SDS011;53901;51.466;-2.588;2023-06-26T13:38:44;8.48;;;1.95;;
66970;SDS011;53901;51.466;-2.588;2023-06-26T13:41:10;4.20;;;1.13;;
66970;SDS011;53901;51.466;-2.588;2023-06-26T13:43:36;7.22;;;1.05;;
66970;SDS011;53901;51.466;-2.588;2023-06-26T13:46:02;5.90;;;1.13;;
66970;SDS011;53901;51.466;-2.588;2023-06-26T13:48:28;3.10;;;1.10;;
66970;SDS011;53901;51.466;-2.588;2023-06-26T13:50:54;6.53;;;1.58;;
66970;SDS011;53901;51.466;-2.588;2023-06-26T13:53:19;5.85;;;1.42;;
66970;SDS011;53901;51.466;-2.588;2023-06-26T13:55:45;6.15;;;1.13;;
66970;SDS011;53901;51.466;-2.588;2023-06-26T13:58:10;4.95;;;1.27;;
66970;SDS011;53901;51.466;-2.588;2023-06-26T14:00:38;8.18;;;1.42;;
66970;SDS011;53901;51.466;-2.588;2023-06-26T14:03:03;2.80;;;1.00;;
66970;SDS011;53901;51.466;-2.588;2023-06-26T14:05:30;5.68;;;1.30;;
66970;SDS011;53901;51.466;-2.588;2023-06-26T14:07:55;7.35;;;1.30;;
66970;SDS011;53901;51.466;-2.588;2023-06-26T14:10:21;5.70;;;1.00;;
66970;SDS011;53901;51.466;-2.588;2023-06-26T14:12:47;2.55;;;1.00;;
66970;SDS011;53901;51.466;-2.588;2023-06-26T14:15:13;3.67;;;0.80;;
66970;SDS011;53901;51.466;-2.588;2023-06-26T14:17:39;8.02;;;1.55;;
66970;SDS011;53901;51.466;-2.588;2023-06-26T14:20:07;4.82;;;1.20;;
66970;SDS011;53901;51.466;-2.588;2023-06-26T14:22:43;3.47;;;1.17;;
66970;SDS011;53901;51.466;-2.588;2023-06-26T14:25:12;3.28;;;1.30;;
66970;SDS011;53901;51.466;-2.588;2023-06-26T14:27:38;3.38;;;0.95;;
66970;SDS011;53901;51.466;-2.588;2023-06-26T14:30:03;3.05;;;1.13;;
66970;SDS011;53901;51.466;-2.588;2023-06-26T14:32:30;3.35;;;1.10;;
66970;SDS011;53901;51.466;-2.588;2023-06-26T14:34:55;4.47;;;1.10;;
66970;SDS011;53901;51.466;-2.588;2023-06-26T14:37:21;2.78;;;0.93;;
66970;SDS011;53901;51.466;-2.588;2023-06-26T14:39:47;2.58;;;1.00;;
66970;SDS011;53901;51.466;-2.588;2023-06-26T14:42:12;3.22;;;1.20;;
66970;SDS011;53901;51.466;-2.588;2023-06-26T14:44:38;6.47;;;1.60;;
66970;SDS011;53901;51.466;-2.588;2023-06-26T14:47:03;6.75;;;1.38;;